createdAt,value
2018-02-20T00:02:00.237Z,28.77
2018-02-20T00:04:28.592Z,28.10
2018-02-20T00:06:56.993Z,29.07
2018-02-20T00:09:25.384Z,29.97
2018-02-20T00:11:53.721Z,29.40
2018-02-20T00:14:22.105Z,32.40
2018-02-20T00:16:50.530Z,30.77
2018-02-20T00:19:18.907Z,27.70
2018-02-20T00:21:47.342Z,32.73
2018-02-20T00:24:15.713Z,26.33
2018-02-20T00:26:44.072Z,26.00
2018-02-20T00:29:12.412Z,30.63
2018-02-20T00:31:40.787Z,29.10
2018-02-20T00:34:09.134Z,31.60
2018-02-20T00:36:37.482Z,28.57
2018-02-20T00:39:05.813Z,25.70
2018-02-20T00:41:34.213Z,27.80
2018-02-20T00:44:02.561Z,27.60
2018-02-20T00:46:30.974Z,26.77
2018-02-20T00:48:59.439Z,28.40
2018-02-20T00:51:27.820Z,32.70
2018-02-20T00:53:56.187Z,27.30
2018-02-20T00:56:24.577Z,29.93
2018-02-20T00:58:52.915Z,30.30
2018-02-20T01:01:21.259Z,31.00
2018-02-20T01:03:49.623Z,33.73
2018-02-20T01:06:17.959Z,33.37
2018-02-20T01:08:46.290Z,29.63
2018-02-20T01:11:14.650Z,32.50
2018-02-20T01:13:42.992Z,35.03
2018-02-20T01:16:11.361Z,36.80
2018-02-20T01:18:39.759Z,38.37
2018-02-20T01:21:08.098Z,37.87
2018-02-20T01:23:36.461Z,38.37
2018-02-20T01:26:04.802Z,31.67
2018-02-20T01:28:33.141Z,31.67
2018-02-20T01:31:01.473Z,32.83
2018-02-20T01:33:29.888Z,38.50
2018-02-20T01:35:58.245Z,35.40
2018-02-20T01:38:26.600Z,40.07
2018-02-20T01:40:54.955Z,37.77
2018-02-20T01:43:23.300Z,40.70
2018-02-20T01:45:51.717Z,42.20
2018-02-20T01:48:20.103Z,39.67
2018-02-20T01:51:00.114Z,41.17
2018-02-20T01:53:28.445Z,43.27
2018-02-20T01:55:56.792Z,41.20
2018-02-20T01:58:25.152Z,42.67
2018-02-20T02:00:53.500Z,44.03
2018-02-20T02:03:21.875Z,41.80
2018-02-20T02:05:50.200Z,43.80
2018-02-20T02:08:18.616Z,43.43
2018-02-20T02:10:46.964Z,40.83
2018-02-20T02:13:15.298Z,42.63
2018-02-20T02:15:43.676Z,42.73
2018-02-20T02:18:12.060Z,40.90
2018-02-20T02:20:40.384Z,38.03
2018-02-20T02:23:08.713Z,37.40
2018-02-20T02:25:37.060Z,32.93
2018-02-20T02:28:05.424Z,39.27
2018-02-20T02:30:33.792Z,38.80
2018-02-20T02:33:02.182Z,37.57
2018-02-20T02:35:30.540Z,40.73
2018-02-20T02:38:00.903Z,38.20
2018-02-20T02:40:29.270Z,36.53
2018-02-20T02:42:57.595Z,36.70
2018-02-20T02:45:25.926Z,36.77
2018-02-20T02:47:54.294Z,41.70
2018-02-20T02:50:22.640Z,34.50
2018-02-20T02:52:51.020Z,41.23
2018-02-20T02:55:19.350Z,41.10
2018-02-20T02:57:47.693Z,38.80
2018-02-20T03:00:16.032Z,37.87
2018-02-20T03:02:44.373Z,38.73
2018-02-20T03:05:12.697Z,39.47
2018-02-20T03:07:41.045Z,40.17
2018-02-20T03:10:09.462Z,38.47
2018-02-20T03:12:37.784Z,37.33
2018-02-20T03:15:06.124Z,40.67
2018-02-20T03:17:34.471Z,36.60
2018-02-20T03:20:02.826Z,31.30
2018-02-20T03:22:31.157Z,35.13
2018-02-20T03:24:59.548Z,30.57
2018-02-20T03:27:27.888Z,37.27
2018-02-20T03:29:56.246Z,35.03
2018-02-20T03:32:24.641Z,33.30
2018-02-20T03:34:52.956Z,38.93
2018-02-20T03:37:21.369Z,33.30
2018-02-20T03:39:49.714Z,31.60
2018-02-20T03:42:18.060Z,30.60
2018-02-20T03:44:46.391Z,32.20
2018-02-20T03:47:14.715Z,30.67
2018-02-20T03:49:43.096Z,33.27
2018-02-20T03:52:11.424Z,32.97
2018-02-20T03:54:39.870Z,26.63
2018-02-20T03:57:08.235Z,29.97
2018-02-20T03:59:36.576Z,29.80
2018-02-20T04:02:04.932Z,25.17
2018-02-20T04:04:33.287Z,24.40
2018-02-20T04:07:01.655Z,28.17
2018-02-20T04:09:30.032Z,29.03
2018-02-20T04:11:58.450Z,33.67
2018-02-20T04:14:32.728Z,35.07
2018-02-20T04:17:01.078Z,32.63
2018-02-20T04:19:29.439Z,32.00
2018-02-20T04:21:58.493Z,32.27
2018-02-20T04:24:26.875Z,32.47
2018-02-20T04:26:55.241Z,34.23
2018-02-20T04:29:23.591Z,32.37
2018-02-20T04:31:52.047Z,30.33
2018-02-20T04:34:20.388Z,37.10
2018-02-20T04:36:48.777Z,32.07
2018-02-20T04:39:17.121Z,34.30
2018-02-20T04:41:45.483Z,34.17
2018-02-20T04:44:13.871Z,27.00
2018-02-20T04:46:42.248Z,28.10
2018-02-20T04:49:11.476Z,30.70
2018-02-20T04:54:39.214Z,27.00
2018-02-20T04:57:07.560Z,29.70
2018-02-20T04:59:35.897Z,28.50
2018-02-20T05:02:04.271Z,27.80
2018-02-20T05:04:32.681Z,24.60
2018-02-20T05:07:01.129Z,30.90
2018-02-20T05:09:29.441Z,33.97
2018-02-20T05:11:57.781Z,33.10
2018-02-20T05:14:26.139Z,34.27
2018-02-20T05:16:54.481Z,34.27
2018-02-20T05:19:22.841Z,33.50
2018-02-20T05:21:51.176Z,33.77
2018-02-20T05:24:19.581Z,32.77
2018-02-20T05:26:47.907Z,30.63
2018-02-20T05:29:16.282Z,30.50
2018-02-20T05:31:44.830Z,28.30
2018-02-20T05:34:13.267Z,32.37
2018-02-20T05:36:42.309Z,33.70
2018-02-20T05:39:10.633Z,33.70
2018-02-20T05:41:38.974Z,32.20
2018-02-20T05:44:07.327Z,35.43
2018-02-20T05:46:35.664Z,36.77
2018-02-20T05:49:04.060Z,34.57
2018-02-20T05:51:32.387Z,37.17
2018-02-20T05:54:00.746Z,36.83
2018-02-20T05:56:30.112Z,35.17
2018-02-20T05:58:58.464Z,37.83
2018-02-20T06:01:26.827Z,35.40
2018-02-20T06:03:55.365Z,35.80
2018-02-20T06:06:23.748Z,34.90
2018-02-20T06:08:52.422Z,34.40
2018-02-20T06:11:20.799Z,33.17
2018-02-20T06:13:49.168Z,29.80
2018-02-20T06:16:17.659Z,28.70
2018-02-20T06:18:46.102Z,31.33
2018-02-20T06:21:14.485Z,36.93
2018-02-20T06:23:43.052Z,39.70
2018-02-20T06:26:14.316Z,34.57
2018-02-20T06:28:42.706Z,40.30
2018-02-20T06:31:11.339Z,42.60
2018-02-20T06:33:39.681Z,47.23
2018-02-20T06:36:08.119Z,45.23
2018-02-20T06:38:36.491Z,46.83
2018-02-20T06:41:04.948Z,47.17
2018-02-20T06:43:33.402Z,45.87
2018-02-20T06:46:01.792Z,43.67
2018-02-20T06:48:30.182Z,45.47
2018-02-20T06:50:59.061Z,43.87
2018-02-20T06:53:27.445Z,45.77
2018-02-20T06:55:55.892Z,43.70
2018-02-20T06:58:24.290Z,37.83
2018-02-20T07:00:52.674Z,43.70
2018-02-20T07:05:53.566Z,36.40
2018-02-20T07:08:21.913Z,39.17
2018-02-20T07:10:50.331Z,38.17
2018-02-20T07:13:18.765Z,36.80
2018-02-20T07:15:47.215Z,40.80
2018-02-20T07:18:15.821Z,37.53
2018-02-20T07:20:44.190Z,38.30
2018-02-20T07:23:12.655Z,38.30
2018-02-20T07:25:41.104Z,36.23
2018-02-20T07:28:09.501Z,38.80
2018-02-20T07:33:10.440Z,39.73
2018-02-20T07:38:11.696Z,40.67
2018-02-20T07:40:40.178Z,45.50
2018-02-20T07:45:45.710Z,44.97
2018-02-20T07:48:14.286Z,43.47
2018-02-20T07:50:47.722Z,40.00
2018-02-20T07:55:48.668Z,41.70
2018-02-20T07:58:17.333Z,41.10
2018-02-20T08:00:45.658Z,39.73
2018-02-20T08:05:47.614Z,40.00
2018-02-20T08:08:17.927Z,41.90
2018-02-20T08:10:50.072Z,31.20
2018-02-20T08:13:18.648Z,33.60
2018-02-20T08:15:47.045Z,31.37
2018-02-20T08:20:47.979Z,29.40
2018-02-20T08:23:16.509Z,28.93
2018-02-20T08:25:44.989Z,26.40
2018-02-20T08:28:14.262Z,25.60
2018-02-20T08:30:42.685Z,28.60
2018-02-20T08:33:13.519Z,29.67
2018-02-20T08:35:42.934Z,30.30
2018-02-20T08:38:11.419Z,28.30
2018-02-20T08:40:39.818Z,25.13
2018-02-20T08:43:09.017Z,26.17
2018-02-20T08:45:37.427Z,27.30
2018-02-20T08:48:06.429Z,27.53
2018-02-20T08:50:34.969Z,26.80
2018-02-20T08:53:04.336Z,22.57
2018-02-20T08:55:37.054Z,22.67
2018-02-20T08:58:05.879Z,23.37
2018-02-20T09:00:34.297Z,23.27
2018-02-20T09:03:02.740Z,27.30
2018-02-20T09:05:31.235Z,24.90
2018-02-20T09:10:33.855Z,23.03
2018-02-20T09:13:03.496Z,23.83
2018-02-20T09:20:37.933Z,21.17
2018-02-20T09:23:06.554Z,27.27
2018-02-20T09:25:35.033Z,22.43
2018-02-20T09:28:05.422Z,24.87
2018-02-20T09:38:19.506Z,23.03
2018-02-20T09:40:48.024Z,24.90
2018-02-20T09:43:16.476Z,25.63
2018-02-20T09:45:45.001Z,29.33
2018-02-20T09:48:14.052Z,27.40
2018-02-20T09:50:44.226Z,31.07
2018-02-20T09:58:20.923Z,30.60
2018-02-20T10:03:23.487Z,26.87
2018-02-20T10:05:52.061Z,29.30
2018-02-20T10:08:25.003Z,26.13
2018-02-20T10:10:53.904Z,24.93
2018-02-20T10:21:12.719Z,28.07
2018-02-20T10:23:42.954Z,29.07
2018-02-20T10:28:48.431Z,29.60
2018-02-20T10:36:22.710Z,27.60
2018-02-20T10:43:56.588Z,24.83
2018-02-20T10:46:24.979Z,19.70
2018-02-20T10:48:53.415Z,26.50
2018-02-20T10:51:21.854Z,20.87
2018-02-20T10:53:50.568Z,25.70
2018-02-20T10:56:19.161Z,25.50
2018-02-20T10:58:50.044Z,27.97
2018-02-20T11:01:18.763Z,21.63
2018-02-20T11:11:25.655Z,35.47
2018-02-20T11:13:54.069Z,33.60
2018-02-20T11:18:56.058Z,29.23
2018-02-20T11:23:58.148Z,27.10
2018-02-20T11:31:32.298Z,23.30
2018-02-20T11:34:00.797Z,23.20
2018-02-20T11:36:29.248Z,24.30
2018-02-20T11:38:58.704Z,21.07
2018-02-20T11:41:30.598Z,19.27
2018-02-20T11:43:59.168Z,22.37
2018-02-20T11:46:27.561Z,23.30
2018-02-20T11:48:56.005Z,23.70
2018-02-20T11:53:56.951Z,26.30
2018-02-20T11:56:25.658Z,27.93
2018-02-20T11:58:54.141Z,28.77
2018-02-20T12:03:55.030Z,32.57
2018-02-20T12:06:25.168Z,31.90
2018-02-20T12:08:53.600Z,31.47
2018-02-20T12:11:21.912Z,34.67
2018-02-20T12:21:31.450Z,30.67
2018-02-20T12:31:56.633Z,32.60
2018-02-20T12:36:59.461Z,30.10
2018-02-20T12:39:28.686Z,31.20
2018-02-20T12:41:57.181Z,30.60
2018-02-20T12:54:36.271Z,32.13
2018-02-20T12:57:04.905Z,33.90
2018-02-20T12:59:34.241Z,32.00
2018-02-20T13:02:02.975Z,32.87
2018-02-20T13:07:05.053Z,33.40
2018-02-20T13:09:33.393Z,31.80
2018-02-20T13:12:02.175Z,26.87
2018-02-20T13:17:02.976Z,28.97
2018-02-20T13:22:04.082Z,32.30
2018-02-20T13:24:32.494Z,30.33
2018-02-20T13:29:36.008Z,27.97
2018-02-20T13:37:10.756Z,29.20
2018-02-20T13:39:40.605Z,29.53
2018-02-20T13:42:13.177Z,24.87
2018-02-20T13:44:41.536Z,26.43
2018-02-20T13:52:15.712Z,25.77
2018-02-20T13:54:44.755Z,25.23
2018-02-20T14:02:19.694Z,24.67
2018-02-20T14:07:24.345Z,21.20
2018-02-20T14:22:38.905Z,22.40
2018-02-20T14:27:42.493Z,19.60
2018-02-20T14:32:45.649Z,26.97
2018-02-20T14:35:18.209Z,26.20
2018-02-20T14:40:20.192Z,24.77
2018-02-20T14:42:49.964Z,30.70
2018-02-20T14:45:19.688Z,28.90
2018-02-20T14:53:05.603Z,30.63
2018-02-20T15:03:48.556Z,32.00
2018-02-20T15:08:51.195Z,29.00
2018-02-20T15:13:52.734Z,32.37
2018-02-20T15:16:25.218Z,32.20
2018-02-20T15:18:53.847Z,34.37
2018-02-20T15:21:22.687Z,32.43
2018-02-20T15:26:23.971Z,34.40
2018-02-20T15:28:52.425Z,36.80
2018-02-20T15:31:22.144Z,36.97
2018-02-20T15:33:50.671Z,37.17
2018-02-20T15:41:25.474Z,39.67
2018-02-20T15:43:54.287Z,36.27
2018-02-20T15:46:24.604Z,35.17
2018-02-20T15:48:53.049Z,38.70
2018-02-20T15:53:55.994Z,42.80
2018-02-20T15:56:24.405Z,43.30
2018-02-20T16:03:57.900Z,41.33
2018-02-20T16:06:26.352Z,42.70
2018-02-20T16:08:54.746Z,43.70
2018-02-20T16:11:23.764Z,45.13
2018-02-20T16:19:00.023Z,44.93
2018-02-20T16:21:29.224Z,48.30
2018-02-20T16:23:57.789Z,43.40
2018-02-20T16:29:01.746Z,41.23
2018-02-20T16:31:30.488Z,45.20
2018-02-20T16:33:59.637Z,43.40
2018-02-20T16:41:35.825Z,45.23
2018-02-20T16:46:37.785Z,39.30
2018-02-20T16:49:06.298Z,43.27
2018-02-20T16:54:08.210Z,40.83
2018-02-20T16:56:41.274Z,42.80
2018-02-20T16:59:10.078Z,47.13
2018-02-20T17:01:40.394Z,45.57
2018-02-20T17:04:11.554Z,41.80
2018-02-20T17:06:41.742Z,42.57
2018-02-20T17:09:10.617Z,39.20
2018-02-20T17:11:39.668Z,39.93
2018-02-20T17:14:08.875Z,31.77
2018-02-20T17:16:37.393Z,36.43
2018-02-20T17:19:06.146Z,34.23
2018-02-20T17:21:34.941Z,35.37
2018-02-20T17:24:03.352Z,35.40
2018-02-20T17:26:32.261Z,30.13
2018-02-20T17:29:01.450Z,26.37
2018-02-20T17:31:29.852Z,25.27
2018-02-20T17:33:59.230Z,26.30
2018-02-20T17:36:28.493Z,27.20
2018-02-20T17:38:58.847Z,26.60
2018-02-20T17:41:29.469Z,26.93
2018-02-20T17:44:00.142Z,30.10
2018-02-20T17:46:32.143Z,33.30
2018-02-20T17:49:00.825Z,36.20
2018-02-20T17:51:29.295Z,35.70
2018-02-20T17:53:58.165Z,37.30
2018-02-20T17:56:26.577Z,42.07
2018-02-20T17:58:55.218Z,39.07
2018-02-20T18:03:58.129Z,43.50
2018-02-20T18:09:00.396Z,44.83
2018-02-20T18:14:10.638Z,51.27
2018-02-20T18:19:11.601Z,50.40
2018-02-20T18:26:45.787Z,48.23
2018-02-20T18:29:14.306Z,52.27
2018-02-20T18:31:43.185Z,55.03
2018-02-20T18:34:12.667Z,51.70
2018-02-20T18:36:43.402Z,55.70
2018-02-20T18:39:12.358Z,53.87
2018-02-20T18:41:41.083Z,49.87
2018-02-20T18:49:17.342Z,50.10
2018-02-20T18:54:18.241Z,50.00
2018-02-20T19:01:53.348Z,45.40
2018-02-20T19:06:56.392Z,48.13
2018-02-20T19:09:24.933Z,47.37
2018-02-20T19:11:53.810Z,52.17
2018-02-20T19:14:23.668Z,51.37
2018-02-20T19:16:52.679Z,48.53
2018-02-20T19:24:29.234Z,56.33
2018-02-20T19:27:01.405Z,53.43
2018-02-20T19:29:30.318Z,48.93
2018-02-20T19:31:58.715Z,52.20
2018-02-20T19:34:27.108Z,53.77
2018-02-20T19:36:55.509Z,54.40
2018-02-20T19:41:57.674Z,50.47
2018-02-20T19:44:26.846Z,49.47
2018-02-20T19:49:27.733Z,53.03
2018-02-20T19:51:56.266Z,50.17
2018-02-20T19:57:00.393Z,49.97
2018-02-20T19:59:29.206Z,50.10
2018-02-20T20:01:57.585Z,51.23
2018-02-20T20:04:26.104Z,47.50
2018-02-20T20:09:27.850Z,48.07
2018-02-20T20:11:56.210Z,48.83
2018-02-20T20:14:25.061Z,44.90
2018-02-20T20:16:53.384Z,45.70
2018-02-20T20:21:54.365Z,50.00
2018-02-20T20:24:22.714Z,48.80
2018-02-20T20:26:53.237Z,51.90
2018-02-20T20:29:21.682Z,49.40
2018-02-20T20:31:50.086Z,52.83
2018-02-20T20:36:52.087Z,51.77
2018-02-20T20:39:20.452Z,46.40
2018-02-20T20:44:21.798Z,48.73
2018-02-20T20:46:50.176Z,49.00
2018-02-20T20:49:18.561Z,51.73
2018-02-20T20:51:46.978Z,47.37
2018-02-20T20:54:15.396Z,50.87
2018-02-20T20:56:47.747Z,52.80
2018-02-20T20:59:16.338Z,50.07
2018-02-20T21:04:18.417Z,45.00
2018-02-20T21:06:46.916Z,51.10
2018-02-20T21:11:52.223Z,48.80
2018-02-20T21:14:20.755Z,52.27
2018-02-20T21:19:22.716Z,51.13
2018-02-20T21:21:51.101Z,49.10
2018-02-20T21:24:19.422Z,52.20
2018-02-20T21:26:48.688Z,54.00
2018-02-20T21:29:17.044Z,47.93
2018-02-20T21:31:45.403Z,49.60
2018-02-20T21:34:14.028Z,56.60
2018-02-20T21:36:42.386Z,51.23
2018-02-20T21:39:10.872Z,52.07
2018-02-20T21:41:39.244Z,50.90
2018-02-20T21:44:07.688Z,50.33
2018-02-20T21:46:36.024Z,47.93
2018-02-20T21:49:04.376Z,49.80
2018-02-20T21:51:32.733Z,50.23
2018-02-20T21:54:01.929Z,47.60
2018-02-20T21:56:30.461Z,50.70
2018-02-20T21:58:58.843Z,46.17
2018-02-20T22:01:27.248Z,46.53
2018-02-20T22:03:55.732Z,45.03
2018-02-20T22:06:24.207Z,49.30
2018-02-20T22:08:52.596Z,48.33
2018-02-20T22:11:20.952Z,49.80
2018-02-20T22:13:49.383Z,47.53
2018-02-20T22:16:17.848Z,50.90
2018-02-20T22:18:46.189Z,48.37
2018-02-20T22:21:14.544Z,49.30
2018-02-20T22:23:42.897Z,45.83
2018-02-20T22:26:11.252Z,46.40
2018-02-20T22:28:39.624Z,48.57
2018-02-20T22:31:07.976Z,46.20
2018-02-20T22:33:36.370Z,47.23
2018-02-20T22:36:04.708Z,47.80
2018-02-20T22:38:33.088Z,45.50
2018-02-20T22:41:01.464Z,51.23
2018-02-20T22:43:29.812Z,47.90
2018-02-20T22:45:58.202Z,50.10
2018-02-20T22:48:26.519Z,51.50
2018-02-20T22:50:54.879Z,52.40
2018-02-20T22:53:23.232Z,52.07
2018-02-20T22:55:51.596Z,50.80
2018-02-20T22:58:19.952Z,50.70
2018-02-20T23:00:48.298Z,50.83
2018-02-20T23:03:16.815Z,52.97
2018-02-20T23:05:45.191Z,55.73
2018-02-20T23:08:13.557Z,52.27
2018-02-20T23:10:41.909Z,52.03
2018-02-20T23:13:10.256Z,50.20
2018-02-20T23:15:38.617Z,48.63
2018-02-20T23:18:06.982Z,49.37
2018-02-20T23:20:35.326Z,52.80
2018-02-20T23:23:03.695Z,47.40
2018-02-20T23:25:32.032Z,48.20
2018-02-20T23:28:00.378Z,47.10
2018-02-20T23:30:28.959Z,44.10
2018-02-20T23:32:57.307Z,46.77
2018-02-20T23:35:25.644Z,51.37
2018-02-20T23:37:53.978Z,49.63
2018-02-20T23:40:22.321Z,55.23
2018-02-20T23:42:50.666Z,51.90
2018-02-20T23:45:19.029Z,50.63
2018-02-20T23:47:47.408Z,50.10
2018-02-20T23:50:15.828Z,51.67
2018-02-20T23:52:44.156Z,53.20
2018-02-20T23:55:12.504Z,51.87
2018-02-20T23:57:40.844Z,51.33
